sensor_id;sensor_type;location;lat;lon;timestamp;P1;durP1;ratioP1;P2;durP2;ratioP2
12912;SDS011;6524;51.368;11.984;2023-08-07T04:28:50;1.67;;;1.58;;
12912;SDS011;6524;51.368;11.984;2023-08-07T04:33:50;2.00;;;1.80;;
12912;SDS011;6524;51.368;11.984;2023-08-07T04:38:54;2.38;;;1.88;;
12912;SDS011;6524;51.368;11.984;2023-08-07T04:43:55;11.10;;;2.20;;
12912;SDS011;6524;51.368;11.984;2023-08-07T04:48:55;2.90;;;1.98;;
12912;SDS011;6524;51.368;11.984;2023-08-07T04:53:56;2.70;;;2.10;;
12912;SDS011;6524;51.368;11.984;2023-08-07T04:58:56;2.35;;;1.90;;
12912;SDS011;6524;51.368;11.984;2023-08-07T05:03:57;2.10;;;1.90;;
12912;SDS011;6524;51.368;11.984;2023-08-07T05:08:57;3.88;;;2.30;;
12912;SDS011;6524;51.368;11.984;2023-08-07T05:13:58;3.20;;;2.22;;
12912;SDS011;6524;51.368;11.984;2023-08-07T05:18:59;3.05;;;1.90;;
12912;SDS011;6524;51.368;11.984;2023-08-07T05:23:59;2.28;;;2.00;;
12912;SDS011;6524;51.368;11.984;2023-08-07T05:29:00;3.92;;;2.05;;
12912;SDS011;6524;51.368;11.984;2023-08-07T05:34:00;3.22;;;2.10;;
12912;SDS011;6524;51.368;11.984;2023-08-07T05:39:00;2.83;;;2.20;;
12912;SDS011;6524;51.368;11.984;2023-08-07T05:44:00;2.05;;;1.85;;
12912;SDS011;6524;51.368;11.984;2023-08-07T05:49:01;3.22;;;2.03;;
12912;SDS011;6524;51.368;11.984;2023-08-07T05:54:01;2.47;;;2.00;;
12912;SDS011;6524;51.368;11.984;2023-08-07T05:59:01;3.38;;;2.20;;
12912;SDS011;6524;51.368;11.984;2023-08-07T06:04:02;2.20;;;2.00;;
12912;SDS011;6524;51.368;11.984;2023-08-07T06:09:02;3.35;;;2.15;;
12912;SDS011;6524;51.368;11.984;2023-08-07T06:14:03;4.15;;;2.15;;
12912;SDS011;6524;51.368;11.984;2023-08-07T06:19:04;4.18;;;1.83;;
12912;SDS011;6524;51.368;11.984;2023-08-07T06:24:04;3.20;;;1.70;;
12912;SDS011;6524;51.368;11.984;2023-08-07T06:29:04;1.75;;;1.58;;
12912;SDS011;6524;51.368;11.984;2023-08-07T06:34:05;2.43;;;1.50;;
12912;SDS011;6524;51.368;11.984;2023-08-07T06:39:05;1.50;;;1.40;;
12912;SDS011;6524;51.368;11.984;2023-08-07T06:44:05;1.40;;;1.30;;
12912;SDS011;6524;51.368;11.984;2023-08-07T06:49:05;1.77;;;1.45;;
12912;SDS011;6524;51.368;11.984;2023-08-07T06:54:06;1.55;;;1.38;;
12912;SDS011;6524;51.368;11.984;2023-08-07T06:59:06;1.40;;;1.30;;
12912;SDS011;6524;51.368;11.984;2023-08-07T07:04:06;1.85;;;1.40;;
12912;SDS011;6524;51.368;11.984;2023-08-07T07:09:07;2.30;;;1.42;;
12912;SDS011;6524;51.368;11.984;2023-08-07T07:14:07;1.50;;;1.40;;
12912;SDS011;6524;51.368;11.984;2023-08-07T07:19:08;2.10;;;1.33;;
12912;SDS011;6524;51.368;11.984;2023-08-07T07:24:09;1.45;;;1.35;;
12912;SDS011;6524;51.368;11.984;2023-08-07T07:29:10;1.38;;;1.20;;
12912;SDS011;6524;51.368;11.984;2023-08-07T07:34:10;1.50;;;1.40;;
12912;SDS011;6524;51.368;11.984;2023-08-07T07:39:10;3.38;;;1.40;;
12912;SDS011;6524;51.368;11.984;2023-08-07T07:44:11;1.30;;;1.20;;
12912;SDS011;6524;51.368;11.984;2023-08-07T07:49:11;2.33;;;1.48;;
12912;SDS011;6524;51.368;11.984;2023-08-07T07:54:11;1.30;;;1.20;;
12912;SDS011;6524;51.368;11.984;2023-08-07T07:59:12;2.13;;;1.30;;
12912;SDS011;6524;51.368;11.984;2023-08-07T08:04:13;1.58;;;1.40;;
12912;SDS011;6524;51.368;11.984;2023-08-07T08:09:14;2.75;;;1.48;;
12912;SDS011;6524;51.368;11.984;2023-08-07T08:14:15;2.25;;;1.50;;
12912;SDS011;6524;51.368;11.984;2023-08-07T08:19:16;2.63;;;1.58;;
12912;SDS011;6524;51.368;11.984;2023-08-07T08:24:17;2.20;;;1.60;;
12912;SDS011;6524;51.368;11.984;2023-08-07T08:29:18;3.05;;;1.70;;
12912;SDS011;6524;51.368;11.984;2023-08-07T08:34:19;1.55;;;1.45;;
12912;SDS011;6524;51.368;11.984;2023-08-07T08:39:19;1.85;;;1.70;;
12912;SDS011;6524;51.368;11.984;2023-08-07T08:44:19;2.03;;;1.50;;
12912;SDS011;6524;51.368;11.984;2023-08-07T08:49:26;2.80;;;1.70;;
12912;SDS011;6524;51.368;11.984;2023-08-07T08:54:31;1.60;;;1.48;;
12912;SDS011;6524;51.368;11.984;2023-08-07T08:59:32;1.67;;;1.58;;
12912;SDS011;6524;51.368;11.984;2023-08-07T09:04:34;1.95;;;1.50;;
12912;SDS011;6524;51.368;11.984;2023-08-07T09:09:34;2.72;;;1.60;;
12912;SDS011;6524;51.368;11.984;2023-08-07T09:14:36;2.78;;;1.48;;
12912;SDS011;6524;51.368;11.984;2023-08-07T09:19:41;1.55;;;1.45;;
12912;SDS011;6524;51.368;11.984;2023-08-07T09:24:42;1.33;;;1.13;;
12912;SDS011;6524;51.368;11.984;2023-08-07T09:29:43;1.30;;;1.20;;
12912;SDS011;6524;51.368;11.984;2023-08-07T09:34:44;1.30;;;1.20;;
12912;SDS011;6524;51.368;11.984;2023-08-07T09:39:44;1.33;;;1.23;;
12912;SDS011;6524;51.368;11.984;2023-08-07T09:44:46;1.55;;;1.10;;
12912;SDS011;6524;51.368;11.984;2023-08-07T09:49:48;1.73;;;1.15;;
12912;SDS011;6524;51.368;11.984;2023-08-07T09:54:55;1.50;;;0.98;;
12912;SDS011;6524;51.368;11.984;2023-08-07T09:59:57;1.10;;;0.90;;
12912;SDS011;6524;51.368;11.984;2023-08-07T10:05:00;1.33;;;1.10;;
12912;SDS011;6524;51.368;11.984;2023-08-07T10:10:04;1.20;;;1.10;;
12912;SDS011;6524;51.368;11.984;2023-08-07T10:15:06;1.40;;;1.30;;
12912;SDS011;6524;51.368;11.984;2023-08-07T10:20:08;1.98;;;1.27;;
12912;SDS011;6524;51.368;11.984;2023-08-07T10:25:09;1.55;;;1.33;;
12912;SDS011;6524;51.368;11.984;2023-08-07T10:30:10;2.43;;;1.47;;
12912;SDS011;6524;51.368;11.984;2023-08-07T10:35:24;1.70;;;1.40;;
12912;SDS011;6524;51.368;11.984;2023-08-07T10:40:33;1.85;;;1.55;;
12912;SDS011;6524;51.368;11.984;2023-08-07T10:45:34;2.35;;;1.50;;
12912;SDS011;6524;51.368;11.984;2023-08-07T10:50:35;2.50;;;1.60;;
12912;SDS011;6524;51.368;11.984;2023-08-07T10:55:49;2.17;;;1.58;;
12912;SDS011;6524;51.368;11.984;2023-08-07T11:00:50;1.50;;;1.40;;
12912;SDS011;6524;51.368;11.984;2023-08-07T11:05:51;2.15;;;1.30;;
12912;SDS011;6524;51.368;11.984;2023-08-07T11:10:52;1.67;;;1.40;;
12912;SDS011;6524;51.368;11.984;2023-08-07T11:15:55;1.85;;;1.63;;
12912;SDS011;6524;51.368;11.984;2023-08-07T11:20:55;2.45;;;1.60;;
12912;SDS011;6524;51.368;11.984;2023-08-07T11:25:57;2.17;;;1.50;;
12912;SDS011;6524;51.368;11.984;2023-08-07T11:30:57;1.70;;;1.60;;
12912;SDS011;6524;51.368;11.984;2023-08-07T11:35:58;2.58;;;1.60;;
12912;SDS011;6524;51.368;11.984;2023-08-07T11:41:03;2.58;;;1.60;;
12912;SDS011;6524;51.368;11.984;2023-08-07T11:46:09;2.22;;;1.60;;
12912;SDS011;6524;51.368;11.984;2023-08-07T11:51:11;1.60;;;1.50;;
12912;SDS011;6524;51.368;11.984;2023-08-07T11:56:13;2.30;;;1.65;;
12912;SDS011;6524;51.368;11.984;2023-08-07T12:01:18;2.58;;;1.30;;
12912;SDS011;6524;51.368;11.984;2023-08-07T12:06:20;1.50;;;1.40;;
12912;SDS011;6524;51.368;11.984;2023-08-07T12:11:20;1.50;;;1.23;;
12912;SDS011;6524;51.368;11.984;2023-08-07T12:16:21;1.30;;;1.20;;
12912;SDS011;6524;51.368;11.984;2023-08-07T12:21:23;1.38;;;1.17;;
12912;SDS011;6524;51.368;11.984;2023-08-07T12:26:26;1.42;;;1.33;;
12912;SDS011;6524;51.368;11.984;2023-08-07T12:31:26;1.60;;;1.50;;
12912;SDS011;6524;51.368;11.984;2023-08-07T12:36:27;3.15;;;1.40;;
12912;SDS011;6524;51.368;11.984;2023-08-07T12:41:27;1.88;;;1.58;;
12912;SDS011;6524;51.368;11.984;2023-08-07T12:46:28;1.58;;;1.30;;
12912;SDS011;6524;51.368;11.984;2023-08-07T12:51:29;1.20;;;1.10;;
12912;SDS011;6524;51.368;11.984;2023-08-07T12:56:29;1.27;;;1.17;;
12912;SDS011;6524;51.368;11.984;2023-08-07T13:01:30;2.08;;;1.27;;
12912;SDS011;6524;51.368;11.984;2023-08-07T13:06:30;2.05;;;1.35;;
12912;SDS011;6524;51.368;11.984;2023-08-07T13:11:30;1.92;;;1.23;;
12912;SDS011;6524;51.368;11.984;2023-08-07T13:16:30;2.40;;;1.37;;
12912;SDS011;6524;51.368;11.984;2023-08-07T13:21:31;1.50;;;1.20;;
12912;SDS011;6524;51.368;11.984;2023-08-07T13:26:31;2.35;;;1.30;;
12912;SDS011;6524;51.368;11.984;2023-08-07T13:31:32;2.25;;;1.50;;
12912;SDS011;6524;51.368;11.984;2023-08-07T13:36:32;1.40;;;1.30;;
12912;SDS011;6524;51.368;11.984;2023-08-07T13:41:33;3.65;;;1.40;;
12912;SDS011;6524;51.368;11.984;2023-08-07T13:46:33;2.17;;;1.45;;
12912;SDS011;6524;51.368;11.984;2023-08-07T13:51:34;2.93;;;1.60;;
12912;SDS011;6524;51.368;11.984;2023-08-07T13:56:34;3.05;;;1.60;;
12912;SDS011;6524;51.368;11.984;2023-08-07T14:01:35;2.15;;;1.58;;
12912;SDS011;6524;51.368;11.984;2023-08-07T14:06:35;2.78;;;1.70;;
12912;SDS011;6524;51.368;11.984;2023-08-07T14:11:37;2.67;;;1.67;;
12912;SDS011;6524;51.368;11.984;2023-08-07T14:16:38;2.58;;;1.90;;
12912;SDS011;6524;51.368;11.984;2023-08-07T14:21:38;2.50;;;1.80;;
12912;SDS011;6524;51.368;11.984;2023-08-07T14:26:39;2.92;;;1.83;;
12912;SDS011;6524;51.368;11.984;2023-08-07T14:31:39;1.90;;;1.53;;
12912;SDS011;6524;51.368;11.984;2023-08-07T14:36:40;2.00;;;1.80;;
12912;SDS011;6524;51.368;11.984;2023-08-07T14:41:40;2.30;;;1.50;;
12912;SDS011;6524;51.368;11.984;2023-08-07T14:46:41;3.00;;;1.50;;
12912;SDS011;6524;51.368;11.984;2023-08-07T14:51:42;2.60;;;1.55;;
12912;SDS011;6524;51.368;11.984;2023-08-07T14:56:42;1.73;;;1.30;;
12912;SDS011;6524;51.368;11.984;2023-08-07T15:01:43;2.40;;;1.60;;
12912;SDS011;6524;51.368;11.984;2023-08-07T15:06:43;2.72;;;1.50;;
12912;SDS011;6524;51.368;11.984;2023-08-07T15:11:46;2.90;;;1.88;;
12912;SDS011;6524;51.368;11.984;2023-08-07T15:16:47;3.92;;;1.95;;
12912;SDS011;6524;51.368;11.984;2023-08-07T15:21:49;1.98;;;1.65;;
12912;SDS011;6524;51.368;11.984;2023-08-07T15:26:50;3.03;;;1.88;;
12912;SDS011;6524;51.368;11.984;2023-08-07T15:31:51;2.38;;;1.63;;
12912;SDS011;6524;51.368;11.984;2023-08-07T15:36:51;2.65;;;1.80;;
12912;SDS011;6524;51.368;11.984;2023-08-07T15:41:52;3.03;;;2.08;;
12912;SDS011;6524;51.368;11.984;2023-08-07T15:46:52;4.53;;;1.90;;
12912;SDS011;6524;51.368;11.984;2023-08-07T15:51:52;3.85;;;2.42;;
12912;SDS011;6524;51.368;11.984;2023-08-07T15:56:53;3.28;;;2.30;;
12912;SDS011;6524;51.368;11.984;2023-08-07T16:01:53;3.75;;;2.10;;
12912;SDS011;6524;51.368;11.984;2023-08-07T16:06:54;3.22;;;2.40;;
12912;SDS011;6524;51.368;11.984;2023-08-07T16:11:54;3.50;;;2.23;;
12912;SDS011;6524;51.368;11.984;2023-08-07T16:16:55;3.45;;;2.50;;
12912;SDS011;6524;51.368;11.984;2023-08-07T16:21:55;4.32;;;2.42;;
12912;SDS011;6524;51.368;11.984;2023-08-07T16:26:55;3.00;;;2.00;;
12912;SDS011;6524;51.368;11.984;2023-08-07T16:31:56;3.42;;;2.20;;
12912;SDS011;6524;51.368;11.984;2023-08-07T16:36:56;4.65;;;2.53;;
12912;SDS011;6524;51.368;11.984;2023-08-07T16:41:57;4.70;;;2.63;;
12912;SDS011;6524;51.368;11.984;2023-08-07T16:46:57;3.92;;;2.85;;
12912;SDS011;6524;51.368;11.984;2023-08-07T16:51:57;3.35;;;2.65;;
12912;SDS011;6524;51.368;11.984;2023-08-07T16:56:58;4.10;;;2.78;;
12912;SDS011;6524;51.368;11.984;2023-08-07T17:01:59;4.10;;;2.70;;
12912;SDS011;6524;51.368;11.984;2023-08-07T17:06:59;5.22;;;3.03;;
12912;SDS011;6524;51.368;11.984;2023-08-07T17:12:01;4.40;;;2.72;;
12912;SDS011;6524;51.368;11.984;2023-08-07T17:17:02;5.07;;;3.10;;
12912;SDS011;6524;51.368;11.984;2023-08-07T17:22:02;3.95;;;2.50;;
12912;SDS011;6524;51.368;11.984;2023-08-07T17:27:04;6.00;;;2.63;;
12912;SDS011;6524;51.368;11.984;2023-08-07T17:32:05;7.07;;;2.97;;
12912;SDS011;6524;51.368;11.984;2023-08-07T17:37:06;5.80;;;2.75;;
12912;SDS011;6524;51.368;11.984;2023-08-07T17:42:07;2.67;;;2.47;;
12912;SDS011;6524;51.368;11.984;2023-08-07T17:47:07;5.53;;;2.72;;
12912;SDS011;6524;51.368;11.984;2023-08-07T17:52:08;4.03;;;2.53;;
12912;SDS011;6524;51.368;11.984;2023-08-07T17:57:13;5.70;;;2.60;;
12912;SDS011;6524;51.368;11.984;2023-08-07T18:02:13;5.07;;;2.67;;
12912;SDS011;6524;51.368;11.984;2023-08-07T18:07:14;4.90;;;2.60;;
12912;SDS011;6524;51.368;11.984;2023-08-07T18:12:14;4.85;;;2.63;;
12912;SDS011;6524;51.368;11.984;2023-08-07T18:17:15;5.40;;;2.78;;
12912;SDS011;6524;51.368;11.984;2023-08-07T18:22:15;4.10;;;2.58;;
12912;SDS011;6524;51.368;11.984;2023-08-07T18:27:17;5.72;;;2.60;;
12912;SDS011;6524;51.368;11.984;2023-08-07T18:32:17;4.90;;;2.40;;
12912;SDS011;6524;51.368;11.984;2023-08-07T18:37:18;3.58;;;2.20;;
12912;SDS011;6524;51.368;11.984;2023-08-07T18:42:21;4.13;;;2.50;;
12912;SDS011;6524;51.368;11.984;2023-08-07T18:47:21;6.13;;;2.60;;
12912;SDS011;6524;51.368;11.984;2023-08-07T18:52:21;5.45;;;2.60;;
12912;SDS011;6524;51.368;11.984;2023-08-07T18:57:22;4.60;;;2.53;;
12912;SDS011;6524;51.368;11.984;2023-08-07T19:02:22;4.80;;;2.53;;
12912;SDS011;6524;51.368;11.984;2023-08-07T19:07:22;3.77;;;2.33;;
12912;SDS011;6524;51.368;11.984;2023-08-07T19:12:23;4.35;;;2.33;;
12912;SDS011;6524;51.368;11.984;2023-08-07T19:17:24;4.05;;;2.30;;
12912;SDS011;6524;51.368;11.984;2023-08-07T19:22:24;2.97;;;2.37;;
12912;SDS011;6524;51.368;11.984;2023-08-07T19:27:27;4.03;;;2.28;;
12912;SDS011;6524;51.368;11.984;2023-08-07T19:32:28;2.97;;;2.08;;
12912;SDS011;6524;51.368;11.984;2023-08-07T19:37:29;3.95;;;2.45;;
12912;SDS011;6524;51.368;11.984;2023-08-07T19:42:30;4.10;;;2.35;;
12912;SDS011;6524;51.368;11.984;2023-08-07T19:47:30;2.90;;;2.00;;
12912;SDS011;6524;51.368;11.984;2023-08-07T19:52:31;3.92;;;2.10;;
12912;SDS011;6524;51.368;11.984;2023-08-07T19:57:31;3.50;;;2.20;;
12912;SDS011;6524;51.368;11.984;2023-08-07T20:02:32;2.83;;;2.13;;
12912;SDS011;6524;51.368;11.984;2023-08-07T20:07:34;5.60;;;2.20;;
12912;SDS011;6524;51.368;11.984;2023-08-07T20:12:35;4.75;;;2.58;;
12912;SDS011;6524;51.368;11.984;2023-08-07T20:17:36;5.57;;;2.45;;
12912;SDS011;6524;51.368;11.984;2023-08-07T20:22:37;6.75;;;2.58;;
12912;SDS011;6524;51.368;11.984;2023-08-07T20:27:37;3.47;;;2.53;;
12912;SDS011;6524;51.368;11.984;2023-08-07T20:32:37;3.67;;;2.25;;
12912;SDS011;6524;51.368;11.984;2023-08-07T20:37:38;4.38;;;2.25;;
12912;SDS011;6524;51.368;11.984;2023-08-07T20:42:38;2.95;;;2.40;;
12912;SDS011;6524;51.368;11.984;2023-08-07T20:47:39;4.90;;;2.40;;
12912;SDS011;6524;51.368;11.984;2023-08-07T20:52:39;4.72;;;2.40;;
12912;SDS011;6524;51.368;11.984;2023-08-07T20:57:39;4.93;;;2.50;;
12912;SDS011;6524;51.368;11.984;2023-08-07T21:02:40;3.88;;;2.30;;
12912;SDS011;6524;51.368;11.984;2023-08-07T21:07:40;5.13;;;2.53;;
12912;SDS011;6524;51.368;11.984;2023-08-07T21:12:40;4.35;;;2.47;;
12912;SDS011;6524;51.368;11.984;2023-08-07T21:17:40;4.18;;;2.42;;
12912;SDS011;6524;51.368;11.984;2023-08-07T21:22:41;4.32;;;2.30;;
12912;SDS011;6524;51.368;11.984;2023-08-07T21:27:41;3.55;;;2.60;;
12912;SDS011;6524;51.368;11.984;2023-08-07T21:32:43;3.58;;;2.30;;
12912;SDS011;6524;51.368;11.984;2023-08-07T21:37:44;7.00;;;2.67;;
12912;SDS011;6524;51.368;11.984;2023-08-07T21:42:44;3.92;;;2.83;;
12912;SDS011;6524;51.368;11.984;2023-08-07T21:47:45;3.13;;;2.50;;
12912;SDS011;6524;51.368;11.984;2023-08-07T21:52:45;4.60;;;2.42;;
12912;SDS011;6524;51.368;11.984;2023-08-07T21:57:45;5.97;;;2.70;;
12912;SDS011;6524;51.368;11.984;2023-08-07T22:02:46;4.55;;;2.85;;
12912;SDS011;6524;51.368;11.984;2023-08-07T22:07:47;4.07;;;2.50;;
12912;SDS011;6524;51.368;11.984;2023-08-07T22:12:47;4.82;;;2.80;;
12912;SDS011;6524;51.368;11.984;2023-08-07T22:17:48;8.23;;;2.97;;
12912;SDS011;6524;51.368;11.984;2023-08-07T22:22:48;5.20;;;2.88;;
12912;SDS011;6524;51.368;11.984;2023-08-07T22:27:48;4.72;;;2.80;;
12912;SDS011;6524;51.368;11.984;2023-08-07T22:32:49;4.63;;;3.00;;
12912;SDS011;6524;51.368;11.984;2023-08-07T22:37:50;6.88;;;2.83;;
12912;SDS011;6524;51.368;11.984;2023-08-07T22:42:50;4.90;;;2.90;;
12912;SDS011;6524;51.368;11.984;2023-08-07T22:47:51;4.72;;;2.85;;
12912;SDS011;6524;51.368;11.984;2023-08-07T22:52:51;4.80;;;2.50;;
12912;SDS011;6524;51.368;11.984;2023-08-07T22:57:51;4.03;;;2.63;;
12912;SDS011;6524;51.368;11.984;2023-08-07T23:02:53;6.03;;;2.80;;
12912;SDS011;6524;51.368;11.984;2023-08-07T23:07:54;4.45;;;2.80;;
12912;SDS011;6524;51.368;11.984;2023-08-07T23:12:55;6.15;;;2.58;;
12912;SDS011;6524;51.368;11.984;2023-08-07T23:17:56;3.35;;;2.50;;
12912;SDS011;6524;51.368;11.984;2023-08-07T23:22:56;4.65;;;2.78;;
12912;SDS011;6524;51.368;11.984;2023-08-07T23:27:57;4.47;;;3.10;;
12912;SDS011;6524;51.368;11.984;2023-08-07T23:32:57;3.95;;;2.60;;
12912;SDS011;6524;51.368;11.984;2023-08-07T23:37:57;4.15;;;2.90;;
12912;SDS011;6524;51.368;11.984;2023-08-07T23:42:57;5.30;;;2.85;;
12912;SDS011;6524;51.368;11.984;2023-08-07T23:47:58;4.75;;;2.65;;
12912;SDS011;6524;51.368;11.984;2023-08-07T23:52:58;4.68;;;2.55;;
12912;SDS011;6524;51.368;11.984;2023-08-07T23:57:58;5.15;;;3.10;;
